sensor_id;sensor_type;location;lat;lon;timestamp;P1;durP1;ratioP1;P2;durP2;ratioP2
22234;SDS011;11286;45.596;5.284;2022-12-17T00:01:01;38.47;;;24.90;;
22234;SDS011;11286;45.596;5.284;2022-12-17T00:03:46;37.10;;;23.55;;
22234;SDS011;11286;45.596;5.284;2022-12-17T00:06:30;37.13;;;22.60;;
22234;SDS011;11286;45.596;5.284;2022-12-17T00:09:14;39.30;;;24.40;;
22234;SDS011;11286;45.596;5.284;2022-12-17T00:11:59;38.13;;;24.42;;
22234;SDS011;11286;45.596;5.284;2022-12-17T00:14:44;39.28;;;25.20;;
22234;SDS011;11286;45.596;5.284;2022-12-17T00:17:28;46.13;;;25.90;;
22234;SDS011;11286;45.596;5.284;2022-12-17T00:20:12;46.28;;;26.95;;
22234;SDS011;11286;45.596;5.284;2022-12-17T00:23:00;41.60;;;25.60;;
22234;SDS011;11286;45.596;5.284;2022-12-17T00:25:50;50.13;;;30.98;;
22234;SDS011;11286;45.596;5.284;2022-12-17T00:28:34;44.45;;;27.33;;
22234;SDS011;11286;45.596;5.284;2022-12-17T00:31:19;40.88;;;24.55;;
22234;SDS011;11286;45.596;5.284;2022-12-17T00:34:03;38.38;;;25.30;;
22234;SDS011;11286;45.596;5.284;2022-12-17T00:36:47;38.70;;;24.92;;
22234;SDS011;11286;45.596;5.284;2022-12-17T00:39:31;39.65;;;24.95;;
22234;SDS011;11286;45.596;5.284;2022-12-17T00:42:15;39.05;;;23.52;;
22234;SDS011;11286;45.596;5.284;2022-12-17T00:44:59;39.90;;;25.95;;
22234;SDS011;11286;45.596;5.284;2022-12-17T00:47:43;37.70;;;22.88;;
22234;SDS011;11286;45.596;5.284;2022-12-17T00:50:27;38.60;;;24.17;;
22234;SDS011;11286;45.596;5.284;2022-12-17T00:53:11;39.72;;;23.65;;
22234;SDS011;11286;45.596;5.284;2022-12-17T00:55:55;41.75;;;23.70;;
22234;SDS011;11286;45.596;5.284;2022-12-17T00:58:39;38.70;;;25.13;;
22234;SDS011;11286;45.596;5.284;2022-12-17T01:01:23;41.50;;;24.77;;
22234;SDS011;11286;45.596;5.284;2022-12-17T01:04:07;43.25;;;25.08;;
22234;SDS011;11286;45.596;5.284;2022-12-17T01:06:51;39.67;;;24.52;;
22234;SDS011;11286;45.596;5.284;2022-12-17T01:09:35;43.38;;;24.35;;
22234;SDS011;11286;45.596;5.284;2022-12-17T01:12:19;41.83;;;24.88;;
22234;SDS011;11286;45.596;5.284;2022-12-17T01:15:04;42.55;;;25.15;;
22234;SDS011;11286;45.596;5.284;2022-12-17T01:17:48;44.17;;;25.50;;
22234;SDS011;11286;45.596;5.284;2022-12-17T01:20:32;42.13;;;25.92;;
22234;SDS011;11286;45.596;5.284;2022-12-17T01:23:16;43.08;;;25.00;;
22234;SDS011;11286;45.596;5.284;2022-12-17T01:26:01;39.28;;;23.90;;
22234;SDS011;11286;45.596;5.284;2022-12-17T01:28:45;39.45;;;22.85;;
22234;SDS011;11286;45.596;5.284;2022-12-17T01:31:29;35.50;;;18.20;;
22234;SDS011;11286;45.596;5.284;2022-12-17T01:34:13;43.38;;;25.40;;
22234;SDS011;11286;45.596;5.284;2022-12-17T01:36:57;44.38;;;25.77;;
22234;SDS011;11286;45.596;5.284;2022-12-17T01:39:41;42.85;;;21.98;;
22234;SDS011;11286;45.596;5.284;2022-12-17T01:42:25;45.13;;;25.67;;
22234;SDS011;11286;45.596;5.284;2022-12-17T01:45:10;45.22;;;25.05;;
22234;SDS011;11286;45.596;5.284;2022-12-17T01:48:03;46.95;;;25.52;;
22234;SDS011;11286;45.596;5.284;2022-12-17T01:50:51;39.85;;;24.10;;
22234;SDS011;11286;45.596;5.284;2022-12-17T01:53:43;40.00;;;24.02;;
22234;SDS011;11286;45.596;5.284;2022-12-17T01:56:31;37.92;;;23.75;;
22234;SDS011;11286;45.596;5.284;2022-12-17T01:59:17;44.20;;;23.70;;
22234;SDS011;11286;45.596;5.284;2022-12-17T02:02:06;41.08;;;23.35;;
22234;SDS011;11286;45.596;5.284;2022-12-17T02:04:50;36.50;;;19.45;;
22234;SDS011;11286;45.596;5.284;2022-12-17T02:07:39;32.25;;;18.67;;
22234;SDS011;11286;45.596;5.284;2022-12-17T02:10:59;41.30;;;23.50;;
22234;SDS011;11286;45.596;5.284;2022-12-17T02:14:34;41.28;;;23.02;;
22234;SDS011;11286;45.596;5.284;2022-12-17T02:17:04;39.15;;;21.55;;
22234;SDS011;11286;45.596;5.284;2022-12-17T02:26:14;42.22;;;22.83;;
22234;SDS011;11286;45.596;5.284;2022-12-17T02:29:12;41.17;;;22.92;;
22234;SDS011;11286;45.596;5.284;2022-12-17T02:31:57;42.75;;;22.35;;
22234;SDS011;11286;45.596;5.284;2022-12-17T02:34:42;42.03;;;24.02;;
22234;SDS011;11286;45.596;5.284;2022-12-17T02:37:30;43.78;;;23.70;;
22234;SDS011;11286;45.596;5.284;2022-12-17T02:40:14;43.67;;;23.23;;
22234;SDS011;11286;45.596;5.284;2022-12-17T02:43:00;40.97;;;24.05;;
22234;SDS011;11286;45.596;5.284;2022-12-17T02:45:45;41.40;;;22.15;;
22234;SDS011;11286;45.596;5.284;2022-12-17T02:48:29;42.33;;;22.67;;
22234;SDS011;11286;45.596;5.284;2022-12-17T02:51:14;44.15;;;23.05;;
22234;SDS011;11286;45.596;5.284;2022-12-17T02:54:01;41.22;;;22.38;;
22234;SDS011;11286;45.596;5.284;2022-12-17T02:56:46;35.80;;;20.65;;
22234;SDS011;11286;45.596;5.284;2022-12-17T02:59:30;39.95;;;22.38;;
22234;SDS011;11286;45.596;5.284;2022-12-17T03:02:14;39.30;;;22.33;;
22234;SDS011;11286;45.596;5.284;2022-12-17T03:04:58;37.30;;;22.48;;
22234;SDS011;11286;45.596;5.284;2022-12-17T03:07:43;35.53;;;20.63;;
22234;SDS011;11286;45.596;5.284;2022-12-17T03:10:27;39.25;;;17.95;;
22234;SDS011;11286;45.596;5.284;2022-12-17T03:13:20;38.28;;;21.48;;
22234;SDS011;11286;45.596;5.284;2022-12-17T03:16:09;36.53;;;20.85;;
22234;SDS011;11286;45.596;5.284;2022-12-17T03:18:56;34.80;;;20.70;;
22234;SDS011;11286;45.596;5.284;2022-12-17T03:21:40;39.50;;;22.60;;
22234;SDS011;11286;45.596;5.284;2022-12-17T03:24:25;39.85;;;22.50;;
22234;SDS011;11286;45.596;5.284;2022-12-17T03:27:09;32.03;;;20.80;;
22234;SDS011;11286;45.596;5.284;2022-12-17T03:29:53;35.22;;;20.27;;
22234;SDS011;11286;45.596;5.284;2022-12-17T03:32:37;27.63;;;15.63;;
22234;SDS011;11286;45.596;5.284;2022-12-17T03:35:21;33.95;;;19.50;;
22234;SDS011;11286;45.596;5.284;2022-12-17T03:38:09;31.98;;;18.98;;
22234;SDS011;11286;45.596;5.284;2022-12-17T03:41:04;36.97;;;19.67;;
22234;SDS011;11286;45.596;5.284;2022-12-17T03:43:48;29.02;;;17.00;;
22234;SDS011;11286;45.596;5.284;2022-12-17T03:46:32;37.25;;;20.23;;
22234;SDS011;11286;45.596;5.284;2022-12-17T03:49:16;33.40;;;19.25;;
22234;SDS011;11286;45.596;5.284;2022-12-17T03:52:00;31.10;;;15.30;;
22234;SDS011;11286;45.596;5.284;2022-12-17T03:54:44;37.53;;;21.80;;
22234;SDS011;11286;45.596;5.284;2022-12-17T03:57:28;32.15;;;17.58;;
22234;SDS011;11286;45.596;5.284;2022-12-17T04:00:12;33.30;;;19.60;;
22234;SDS011;11286;45.596;5.284;2022-12-17T04:02:57;35.60;;;21.98;;
22234;SDS011;11286;45.596;5.284;2022-12-17T04:05:41;31.20;;;18.73;;
22234;SDS011;11286;45.596;5.284;2022-12-17T04:08:33;28.10;;;17.05;;
22234;SDS011;11286;45.596;5.284;2022-12-17T04:11:17;28.27;;;15.20;;
22234;SDS011;11286;45.596;5.284;2022-12-17T04:14:02;37.40;;;20.83;;
22234;SDS011;11286;45.596;5.284;2022-12-17T04:16:46;32.63;;;19.38;;
22234;SDS011;11286;45.596;5.284;2022-12-17T04:19:30;37.67;;;20.40;;
22234;SDS011;11286;45.596;5.284;2022-12-17T04:22:14;32.15;;;17.55;;
22234;SDS011;11286;45.596;5.284;2022-12-17T04:24:58;30.80;;;17.95;;
22234;SDS011;11286;45.596;5.284;2022-12-17T04:27:42;31.40;;;19.75;;
22234;SDS011;11286;45.596;5.284;2022-12-17T04:30:27;34.13;;;19.42;;
22234;SDS011;11286;45.596;5.284;2022-12-17T04:33:24;31.20;;;19.98;;
22234;SDS011;11286;45.596;5.284;2022-12-17T04:36:08;33.15;;;19.55;;
22234;SDS011;11286;45.596;5.284;2022-12-17T04:38:53;28.52;;;16.98;;
22234;SDS011;11286;45.596;5.284;2022-12-17T04:41:37;31.35;;;19.88;;
22234;SDS011;11286;45.596;5.284;2022-12-17T04:44:21;27.95;;;16.88;;
22234;SDS011;11286;45.596;5.284;2022-12-17T04:47:05;26.92;;;16.00;;
22234;SDS011;11286;45.596;5.284;2022-12-17T04:49:49;32.30;;;18.30;;
22234;SDS011;11286;45.596;5.284;2022-12-17T04:52:33;26.40;;;16.25;;
22234;SDS011;11286;45.596;5.284;2022-12-17T04:55:19;30.60;;;19.33;;
22234;SDS011;11286;45.596;5.284;2022-12-17T04:58:03;25.55;;;16.27;;
22234;SDS011;11286;45.596;5.284;2022-12-17T05:00:51;33.65;;;18.90;;
22234;SDS011;11286;45.596;5.284;2022-12-17T05:03:36;30.70;;;18.20;;
22234;SDS011;11286;45.596;5.284;2022-12-17T05:06:20;28.50;;;18.70;;
22234;SDS011;11286;45.596;5.284;2022-12-17T05:09:04;32.40;;;17.02;;
22234;SDS011;11286;45.596;5.284;2022-12-17T05:11:48;32.33;;;18.42;;
22234;SDS011;11286;45.596;5.284;2022-12-17T05:14:32;34.10;;;18.77;;
22234;SDS011;11286;45.596;5.284;2022-12-17T05:17:17;36.35;;;20.52;;
22234;SDS011;11286;45.596;5.284;2022-12-17T05:20:01;32.33;;;18.08;;
22234;SDS011;11286;45.596;5.284;2022-12-17T05:22:45;29.35;;;19.40;;
22234;SDS011;11286;45.596;5.284;2022-12-17T05:25:29;34.95;;;18.83;;
22234;SDS011;11286;45.596;5.284;2022-12-17T05:28:13;31.40;;;18.90;;
22234;SDS011;11286;45.596;5.284;2022-12-17T05:30:57;27.65;;;18.42;;
22234;SDS011;11286;45.596;5.284;2022-12-17T05:33:41;32.00;;;19.23;;
22234;SDS011;11286;45.596;5.284;2022-12-17T05:36:26;33.40;;;19.65;;
22234;SDS011;11286;45.596;5.284;2022-12-17T05:39:10;32.28;;;18.85;;
22234;SDS011;11286;45.596;5.284;2022-12-17T05:41:54;25.55;;;13.75;;
22234;SDS011;11286;45.596;5.284;2022-12-17T05:44:38;33.15;;;18.75;;
22234;SDS011;11286;45.596;5.284;2022-12-17T05:47:33;32.80;;;19.27;;
22234;SDS011;11286;45.596;5.284;2022-12-17T05:50:22;32.08;;;19.48;;
22234;SDS011;11286;45.596;5.284;2022-12-17T05:53:06;31.85;;;19.00;;
22234;SDS011;11286;45.596;5.284;2022-12-17T05:55:51;32.13;;;19.67;;
22234;SDS011;11286;45.596;5.284;2022-12-17T05:58:36;31.75;;;17.52;;
22234;SDS011;11286;45.596;5.284;2022-12-17T06:01:20;35.92;;;21.23;;
22234;SDS011;11286;45.596;5.284;2022-12-17T06:04:04;27.85;;;15.35;;
22234;SDS011;11286;45.596;5.284;2022-12-17T06:06:48;28.90;;;15.65;;
22234;SDS011;11286;45.596;5.284;2022-12-17T06:09:32;36.78;;;20.60;;
22234;SDS011;11286;45.596;5.284;2022-12-17T06:12:16;36.53;;;20.95;;
22234;SDS011;11286;45.596;5.284;2022-12-17T06:15:00;37.03;;;21.92;;
22234;SDS011;11286;45.596;5.284;2022-12-17T06:17:53;36.35;;;20.35;;
22234;SDS011;11286;45.596;5.284;2022-12-17T06:20:38;54.65;;;27.55;;
22234;SDS011;11286;45.596;5.284;2022-12-17T06:23:22;36.67;;;20.67;;
22234;SDS011;11286;45.596;5.284;2022-12-17T06:26:06;36.72;;;20.73;;
22234;SDS011;11286;45.596;5.284;2022-12-17T06:28:51;34.42;;;18.13;;
22234;SDS011;11286;45.596;5.284;2022-12-17T06:31:35;39.63;;;21.60;;
22234;SDS011;11286;45.596;5.284;2022-12-17T06:34:19;38.20;;;20.75;;
22234;SDS011;11286;45.596;5.284;2022-12-17T06:37:03;34.75;;;20.70;;
22234;SDS011;11286;45.596;5.284;2022-12-17T06:39:47;34.17;;;20.75;;
22234;SDS011;11286;45.596;5.284;2022-12-17T06:42:31;35.33;;;20.75;;
22234;SDS011;11286;45.596;5.284;2022-12-17T06:45:15;35.65;;;19.05;;
22234;SDS011;11286;45.596;5.284;2022-12-17T06:48:03;33.20;;;18.92;;
22234;SDS011;11286;45.596;5.284;2022-12-17T06:50:48;28.05;;;17.00;;
22234;SDS011;11286;45.596;5.284;2022-12-17T06:53:32;37.75;;;20.08;;
22234;SDS011;11286;45.596;5.284;2022-12-17T06:56:17;35.08;;;21.23;;
22234;SDS011;11286;45.596;5.284;2022-12-17T06:59:01;34.65;;;19.67;;
22234;SDS011;11286;45.596;5.284;2022-12-17T07:01:45;30.70;;;17.52;;
22234;SDS011;11286;45.596;5.284;2022-12-17T07:04:29;32.97;;;19.80;;
22234;SDS011;11286;45.596;5.284;2022-12-17T07:07:13;36.22;;;20.65;;
22234;SDS011;11286;45.596;5.284;2022-12-17T07:09:57;21.17;;;12.68;;
22234;SDS011;11286;45.596;5.284;2022-12-17T07:12:40;32.63;;;18.30;;
22234;SDS011;11286;45.596;5.284;2022-12-17T07:15:25;36.13;;;19.83;;
22234;SDS011;11286;45.596;5.284;2022-12-17T07:18:09;28.83;;;15.77;;
22234;SDS011;11286;45.596;5.284;2022-12-17T07:20:53;34.85;;;18.45;;
22234;SDS011;11286;45.596;5.284;2022-12-17T07:23:37;36.58;;;21.08;;
22234;SDS011;11286;45.596;5.284;2022-12-17T07:26:22;33.15;;;17.92;;
22234;SDS011;11286;45.596;5.284;2022-12-17T07:29:06;39.83;;;21.92;;
22234;SDS011;11286;45.596;5.284;2022-12-17T07:31:50;29.08;;;16.60;;
22234;SDS011;11286;45.596;5.284;2022-12-17T07:34:34;49.85;;;30.75;;
22234;SDS011;11286;45.596;5.284;2022-12-17T07:37:19;31.33;;;18.70;;
22234;SDS011;11286;45.596;5.284;2022-12-17T07:40:03;36.42;;;21.40;;
22234;SDS011;11286;45.596;5.284;2022-12-17T07:42:48;34.13;;;18.70;;
22234;SDS011;11286;45.596;5.284;2022-12-17T07:45:32;42.97;;;23.50;;
22234;SDS011;11286;45.596;5.284;2022-12-17T07:48:16;35.47;;;21.30;;
22234;SDS011;11286;45.596;5.284;2022-12-17T07:51:00;70.57;;;36.25;;
22234;SDS011;11286;45.596;5.284;2022-12-17T07:53:44;56.50;;;27.92;;
22234;SDS011;11286;45.596;5.284;2022-12-17T07:56:28;34.95;;;20.48;;
22234;SDS011;11286;45.596;5.284;2022-12-17T07:59:13;70.93;;;41.90;;
22234;SDS011;11286;45.596;5.284;2022-12-17T08:01:57;51.78;;;30.23;;
22234;SDS011;11286;45.596;5.284;2022-12-17T08:04:41;116.63;;;68.97;;
22234;SDS011;11286;45.596;5.284;2022-12-17T08:07:25;34.50;;;20.15;;
22234;SDS011;11286;45.596;5.284;2022-12-17T08:10:09;40.67;;;22.75;;
22234;SDS011;11286;45.596;5.284;2022-12-17T08:12:54;36.33;;;21.50;;
22234;SDS011;11286;45.596;5.284;2022-12-17T08:15:40;39.10;;;23.23;;
22234;SDS011;11286;45.596;5.284;2022-12-17T08:18:24;71.10;;;44.25;;
22234;SDS011;11286;45.596;5.284;2022-12-17T08:21:08;52.40;;;32.50;;
22234;SDS011;11286;45.596;5.284;2022-12-17T08:23:52;47.95;;;30.95;;
22234;SDS011;11286;45.596;5.284;2022-12-17T08:26:36;42.25;;;24.08;;
22234;SDS011;11286;45.596;5.284;2022-12-17T08:29:20;39.88;;;22.98;;
22234;SDS011;11286;45.596;5.284;2022-12-17T08:32:04;43.70;;;24.13;;
22234;SDS011;11286;45.596;5.284;2022-12-17T08:34:48;41.30;;;21.67;;
22234;SDS011;11286;45.596;5.284;2022-12-17T08:37:32;41.45;;;22.70;;
22234;SDS011;11286;45.596;5.284;2022-12-17T08:40:16;42.60;;;24.45;;
22234;SDS011;11286;45.596;5.284;2022-12-17T08:43:00;42.60;;;21.55;;
22234;SDS011;11286;45.596;5.284;2022-12-17T08:45:45;38.13;;;21.50;;
22234;SDS011;11286;45.596;5.284;2022-12-17T08:48:33;42.00;;;21.98;;
22234;SDS011;11286;45.596;5.284;2022-12-17T08:51:17;42.58;;;23.73;;
22234;SDS011;11286;45.596;5.284;2022-12-17T08:54:01;36.78;;;21.90;;
22234;SDS011;11286;45.596;5.284;2022-12-17T08:56:46;40.33;;;22.17;;
22234;SDS011;11286;45.596;5.284;2022-12-17T08:59:30;43.65;;;24.50;;
22234;SDS011;11286;45.596;5.284;2022-12-17T09:02:14;42.33;;;25.52;;
22234;SDS011;11286;45.596;5.284;2022-12-17T09:04:58;36.22;;;20.45;;
22234;SDS011;11286;45.596;5.284;2022-12-17T09:07:42;39.75;;;21.48;;
22234;SDS011;11286;45.596;5.284;2022-12-17T09:10:26;40.42;;;21.95;;
22234;SDS011;11286;45.596;5.284;2022-12-17T09:13:10;37.78;;;19.02;;
22234;SDS011;11286;45.596;5.284;2022-12-17T09:15:55;39.00;;;20.77;;
22234;SDS011;11286;45.596;5.284;2022-12-17T09:18:39;45.63;;;22.83;;
22234;SDS011;11286;45.596;5.284;2022-12-17T09:21:26;55.85;;;20.23;;
22234;SDS011;11286;45.596;5.284;2022-12-17T09:24:14;37.25;;;22.20;;
22234;SDS011;11286;45.596;5.284;2022-12-17T09:26:58;39.40;;;21.90;;
22234;SDS011;11286;45.596;5.284;2022-12-17T09:29:42;41.53;;;22.20;;
22234;SDS011;11286;45.596;5.284;2022-12-17T09:32:27;38.90;;;22.48;;
22234;SDS011;11286;45.596;5.284;2022-12-17T09:35:11;28.63;;;14.80;;
22234;SDS011;11286;45.596;5.284;2022-12-17T09:37:55;40.40;;;21.88;;
22234;SDS011;11286;45.596;5.284;2022-12-17T09:40:40;40.72;;;23.65;;
22234;SDS011;11286;45.596;5.284;2022-12-17T09:43:46;41.13;;;22.40;;
22234;SDS011;11286;45.596;5.284;2022-12-17T09:49:25;41.97;;;22.63;;
22234;SDS011;11286;45.596;5.284;2022-12-17T09:55:17;41.40;;;23.98;;
22234;SDS011;11286;45.596;5.284;2022-12-17T09:58:18;45.10;;;25.15;;
22234;SDS011;11286;45.596;5.284;2022-12-17T10:01:14;41.15;;;22.98;;
22234;SDS011;11286;45.596;5.284;2022-12-17T10:04:02;40.92;;;22.23;;
22234;SDS011;11286;45.596;5.284;2022-12-17T10:06:49;38.13;;;20.52;;
22234;SDS011;11286;45.596;5.284;2022-12-17T10:09:33;38.17;;;20.13;;
22234;SDS011;11286;45.596;5.284;2022-12-17T10:12:18;35.25;;;19.13;;
22234;SDS011;11286;45.596;5.284;2022-12-17T10:15:04;35.65;;;17.92;;
22234;SDS011;11286;45.596;5.284;2022-12-17T10:17:49;33.97;;;19.85;;
22234;SDS011;11286;45.596;5.284;2022-12-17T10:20:41;38.92;;;20.27;;
22234;SDS011;11286;45.596;5.284;2022-12-17T10:23:31;31.10;;;16.33;;
22234;SDS011;11286;45.596;5.284;2022-12-17T10:26:17;55.80;;;30.60;;
22234;SDS011;11286;45.596;5.284;2022-12-17T10:29:05;62.03;;;34.47;;
22234;SDS011;11286;45.596;5.284;2022-12-17T10:32:00;39.90;;;22.70;;
22234;SDS011;11286;45.596;5.284;2022-12-17T10:35:20;34.80;;;19.98;;
22234;SDS011;11286;45.596;5.284;2022-12-17T10:41:17;31.20;;;16.30;;
22234;SDS011;11286;45.596;5.284;2022-12-17T10:44:25;29.27;;;17.58;;
22234;SDS011;11286;45.596;5.284;2022-12-17T10:47:17;29.38;;;17.25;;
22234;SDS011;11286;45.596;5.284;2022-12-17T10:50:10;29.48;;;17.83;;
22234;SDS011;11286;45.596;5.284;2022-12-17T10:52:56;29.75;;;17.75;;
22234;SDS011;11286;45.596;5.284;2022-12-17T10:55:48;27.45;;;16.17;;
22234;SDS011;11286;45.596;5.284;2022-12-17T10:58:35;25.73;;;16.15;;
22234;SDS011;11286;45.596;5.284;2022-12-17T11:01:21;32.67;;;17.98;;
22234;SDS011;11286;45.596;5.284;2022-12-17T11:04:28;30.30;;;19.05;;
22234;SDS011;11286;45.596;5.284;2022-12-17T11:07:26;27.60;;;16.67;;
22234;SDS011;11286;45.596;5.284;2022-12-17T11:10:20;27.00;;;16.80;;
22234;SDS011;11286;45.596;5.284;2022-12-17T11:13:08;25.42;;;16.17;;
22234;SDS011;11286;45.596;5.284;2022-12-17T11:15:56;28.65;;;17.85;;
22234;SDS011;11286;45.596;5.284;2022-12-17T11:18:54;37.60;;;22.58;;
22234;SDS011;11286;45.596;5.284;2022-12-17T11:24:41;26.48;;;15.98;;
22234;SDS011;11286;45.596;5.284;2022-12-17T11:27:28;152.98;;;68.35;;
22234;SDS011;11286;45.596;5.284;2022-12-17T11:30:17;98.57;;;51.08;;
22234;SDS011;11286;45.596;5.284;2022-12-17T11:39:28;102.30;;;50.35;;
22234;SDS011;11286;45.596;5.284;2022-12-17T11:42:27;52.92;;;29.00;;
22234;SDS011;11286;45.596;5.284;2022-12-17T11:48:20;43.85;;;24.20;;
22234;SDS011;11286;45.596;5.284;2022-12-17T11:51:15;55.55;;;31.02;;
22234;SDS011;11286;45.596;5.284;2022-12-17T11:56:51;36.28;;;19.67;;
22234;SDS011;11286;45.596;5.284;2022-12-17T12:00:03;28.45;;;17.15;;
22234;SDS011;11286;45.596;5.284;2022-12-17T12:05:53;30.92;;;18.00;;
22234;SDS011;11286;45.596;5.284;2022-12-17T12:08:54;48.60;;;28.00;;
22234;SDS011;11286;45.596;5.284;2022-12-17T12:18:36;29.08;;;18.23;;
22234;SDS011;11286;45.596;5.284;2022-12-17T12:21:39;34.10;;;21.95;;
22234;SDS011;11286;45.596;5.284;2022-12-17T12:27:36;35.88;;;20.45;;
22234;SDS011;11286;45.596;5.284;2022-12-17T12:30:34;31.23;;;19.33;;
22234;SDS011;11286;45.596;5.284;2022-12-17T12:33:44;39.70;;;23.92;;
22234;SDS011;11286;45.596;5.284;2022-12-17T12:36:36;36.45;;;23.08;;
22234;SDS011;11286;45.596;5.284;2022-12-17T12:39:29;38.22;;;22.05;;
22234;SDS011;11286;45.596;5.284;2022-12-17T12:48:33;38.92;;;23.20;;
22234;SDS011;11286;45.596;5.284;2022-12-17T12:51:35;44.20;;;25.80;;
22234;SDS011;11286;45.596;5.284;2022-12-17T12:54:22;29.08;;;18.55;;
22234;SDS011;11286;45.596;5.284;2022-12-17T13:24:40;32.20;;;19.95;;
22234;SDS011;11286;45.596;5.284;2022-12-17T13:29:52;34.20;;;20.52;;
22234;SDS011;11286;45.596;5.284;2022-12-17T13:32:24;31.92;;;20.27;;
22234;SDS011;11286;45.596;5.284;2022-12-17T13:35:10;33.55;;;20.08;;
22234;SDS011;11286;45.596;5.284;2022-12-17T13:37:59;36.90;;;21.77;;
22234;SDS011;11286;45.596;5.284;2022-12-17T13:43:31;37.92;;;22.10;;
22234;SDS011;11286;45.596;5.284;2022-12-17T13:46:02;41.50;;;24.30;;
22234;SDS011;11286;45.596;5.284;2022-12-17T13:48:28;34.88;;;20.70;;
22234;SDS011;11286;45.596;5.284;2022-12-17T13:51:01;32.53;;;19.55;;
22234;SDS011;11286;45.596;5.284;2022-12-17T13:53:29;46.70;;;26.90;;
22234;SDS011;11286;45.596;5.284;2022-12-17T13:55:58;86.80;;;42.03;;
22234;SDS011;11286;45.596;5.284;2022-12-17T13:58:28;188.18;;;76.60;;
22234;SDS011;11286;45.596;5.284;2022-12-17T14:01:09;178.23;;;74.10;;
22234;SDS011;11286;45.596;5.284;2022-12-17T14:03:36;112.88;;;53.15;;
22234;SDS011;11286;45.596;5.284;2022-12-17T14:06:03;35.78;;;20.33;;
22234;SDS011;11286;45.596;5.284;2022-12-17T14:08:33;59.90;;;30.35;;
22234;SDS011;11286;45.596;5.284;2022-12-17T14:10:59;39.95;;;22.25;;
22234;SDS011;11286;45.596;5.284;2022-12-17T14:13:45;32.78;;;18.80;;
22234;SDS011;11286;45.596;5.284;2022-12-17T14:16:15;35.47;;;20.95;;
22234;SDS011;11286;45.596;5.284;2022-12-17T14:18:45;33.00;;;19.75;;
22234;SDS011;11286;45.596;5.284;2022-12-17T14:21:15;42.85;;;24.58;;
22234;SDS011;11286;45.596;5.284;2022-12-17T14:23:41;48.25;;;27.05;;
22234;SDS011;11286;45.596;5.284;2022-12-17T14:26:09;39.33;;;20.88;;
22234;SDS011;11286;45.596;5.284;2022-12-17T14:28:36;36.42;;;21.40;;
22234;SDS011;11286;45.596;5.284;2022-12-17T14:33:38;32.88;;;21.00;;
22234;SDS011;11286;45.596;5.284;2022-12-17T14:36:16;29.55;;;19.27;;
22234;SDS011;11286;45.596;5.284;2022-12-17T14:38:52;31.02;;;19.90;;
22234;SDS011;11286;45.596;5.284;2022-12-17T14:41:19;30.77;;;18.88;;
22234;SDS011;11286;45.596;5.284;2022-12-17T14:44:04;35.60;;;22.95;;
22234;SDS011;11286;45.596;5.284;2022-12-17T14:46:31;33.97;;;19.95;;
22234;SDS011;11286;45.596;5.284;2022-12-17T14:48:58;54.97;;;33.55;;
22234;SDS011;11286;45.596;5.284;2022-12-17T14:51:30;37.72;;;22.67;;
22234;SDS011;11286;45.596;5.284;2022-12-17T14:54:31;33.63;;;20.00;;
22234;SDS011;11286;45.596;5.284;2022-12-17T14:56:50;32.13;;;20.17;;
22234;SDS011;11286;45.596;5.284;2022-12-17T15:02:02;30.38;;;19.40;;
22234;SDS011;11286;45.596;5.284;2022-12-17T15:04:47;36.47;;;22.60;;
22234;SDS011;11286;45.596;5.284;2022-12-17T15:07:16;33.15;;;21.05;;
22234;SDS011;11286;45.596;5.284;2022-12-17T15:09:52;34.28;;;22.15;;
22234;SDS011;11286;45.596;5.284;2022-12-17T15:12:19;37.00;;;22.13;;
22234;SDS011;11286;45.596;5.284;2022-12-17T15:14:46;34.20;;;21.55;;
22234;SDS011;11286;45.596;5.284;2022-12-17T15:17:13;33.67;;;20.55;;
22234;SDS011;11286;45.596;5.284;2022-12-17T15:19:39;35.08;;;20.95;;
22234;SDS011;11286;45.596;5.284;2022-12-17T15:22:05;33.55;;;19.77;;
22234;SDS011;11286;45.596;5.284;2022-12-17T15:24:33;32.20;;;19.80;;
22234;SDS011;11286;45.596;5.284;2022-12-17T15:26:59;30.88;;;19.92;;
22234;SDS011;11286;45.596;5.284;2022-12-17T15:29:24;36.28;;;23.25;;
22234;SDS011;11286;45.596;5.284;2022-12-17T15:31:50;34.40;;;21.42;;
22234;SDS011;11286;45.596;5.284;2022-12-17T15:34:16;42.47;;;26.20;;
22234;SDS011;11286;45.596;5.284;2022-12-17T15:36:41;32.95;;;20.77;;
22234;SDS011;11286;45.596;5.284;2022-12-17T15:39:07;35.17;;;21.15;;
22234;SDS011;11286;45.596;5.284;2022-12-17T15:41:33;38.00;;;22.13;;
22234;SDS011;11286;45.596;5.284;2022-12-17T15:44:17;33.20;;;20.92;;
22234;SDS011;11286;45.596;5.284;2022-12-17T15:46:42;36.10;;;21.13;;
22234;SDS011;11286;45.596;5.284;2022-12-17T15:49:08;38.63;;;24.33;;
22234;SDS011;11286;45.596;5.284;2022-12-17T15:51:34;37.75;;;23.52;;
22234;SDS011;11286;45.596;5.284;2022-12-17T15:53:59;38.22;;;23.58;;
22234;SDS011;11286;45.596;5.284;2022-12-17T15:56:25;39.90;;;24.65;;
22234;SDS011;11286;45.596;5.284;2022-12-17T15:58:55;37.63;;;22.90;;
22234;SDS011;11286;45.596;5.284;2022-12-17T16:01:21;43.38;;;27.20;;
22234;SDS011;11286;45.596;5.284;2022-12-17T16:03:47;53.55;;;34.22;;
22234;SDS011;11286;45.596;5.284;2022-12-17T16:06:13;41.72;;;22.98;;
22234;SDS011;11286;45.596;5.284;2022-12-17T16:08:38;37.03;;;22.38;;
22234;SDS011;11286;45.596;5.284;2022-12-17T16:11:05;37.88;;;22.13;;
22234;SDS011;11286;45.596;5.284;2022-12-17T16:13:33;35.38;;;21.90;;
22234;SDS011;11286;45.596;5.284;2022-12-17T16:15:59;35.55;;;21.17;;
22234;SDS011;11286;45.596;5.284;2022-12-17T16:18:24;40.45;;;22.55;;
22234;SDS011;11286;45.596;5.284;2022-12-17T16:20:50;36.70;;;22.17;;
22234;SDS011;11286;45.596;5.284;2022-12-17T16:23:16;35.42;;;20.25;;
22234;SDS011;11286;45.596;5.284;2022-12-17T16:25:41;37.90;;;22.25;;
22234;SDS011;11286;45.596;5.284;2022-12-17T16:28:07;38.08;;;20.95;;
22234;SDS011;11286;45.596;5.284;2022-12-17T16:30:33;37.55;;;22.55;;
22234;SDS011;11286;45.596;5.284;2022-12-17T16:32:59;35.78;;;21.38;;
22234;SDS011;11286;45.596;5.284;2022-12-17T16:35:25;32.67;;;20.33;;
22234;SDS011;11286;45.596;5.284;2022-12-17T16:37:52;37.38;;;22.65;;
22234;SDS011;11286;45.596;5.284;2022-12-17T16:40:18;37.47;;;22.17;;
22234;SDS011;11286;45.596;5.284;2022-12-17T16:42:44;36.03;;;23.35;;
22234;SDS011;11286;45.596;5.284;2022-12-17T16:45:10;36.75;;;22.25;;
22234;SDS011;11286;45.596;5.284;2022-12-17T16:47:35;41.78;;;25.08;;
22234;SDS011;11286;45.596;5.284;2022-12-17T16:50:01;38.67;;;24.90;;
22234;SDS011;11286;45.596;5.284;2022-12-17T16:52:27;41.10;;;24.85;;
22234;SDS011;11286;45.596;5.284;2022-12-17T16:54:53;35.10;;;21.77;;
22234;SDS011;11286;45.596;5.284;2022-12-17T16:57:18;33.22;;;20.35;;
22234;SDS011;11286;45.596;5.284;2022-12-17T16:59:44;37.83;;;23.40;;
22234;SDS011;11286;45.596;5.284;2022-12-17T17:02:10;37.95;;;22.00;;
22234;SDS011;11286;45.596;5.284;2022-12-17T17:04:37;40.55;;;24.63;;
22234;SDS011;11286;45.596;5.284;2022-12-17T17:07:03;36.88;;;25.13;;
22234;SDS011;11286;45.596;5.284;2022-12-17T17:09:29;35.65;;;21.42;;
22234;SDS011;11286;45.596;5.284;2022-12-17T17:11:55;35.90;;;22.08;;
22234;SDS011;11286;45.596;5.284;2022-12-17T17:14:22;32.97;;;19.77;;
22234;SDS011;11286;45.596;5.284;2022-12-17T17:16:49;35.08;;;21.25;;